DW1410 Paimio FI current weather conditions

sailwx.info

Wind from 312 at 0 knots gusting 6

Air temperature 8.9° C
Dewpoint 6.8° C

Last reported at 2019-Sep-21 17:01 UTC.
Time now 2019-Sep-21 17:20 UTC

Location: N 60°28' E 022°42'.
View on Google Maps.

See reports from other nearby stations

  
Tides and Currents Weather Stations Pressure Air Temp Water Temp Dewpoint Dewpoint Depression Visibility Wind Speed Wind Dir Waves Ship Positions
date/time (UTC)wind fromknots sea level pressurealtimeterstation pressurevisibilityair tempwater tempwave heightnotes
2019-Sep-21 17:01 312 0 gusting 6 8.9
2019-Sep-21 16:47 344 1 gusting 10 8.9
2019-Sep-21 16:32 320 2 gusting 7 9.4
2019-Sep-21 16:15 316 1 gusting 6 9.4
2019-Sep-21 16:00 329 1 gusting 7 10.0
2019-Sep-21 15:46 262 2 gusting 9 10.6
2019-Sep-21 15:31 304 1 gusting 4 10.6
2019-Sep-21 15:16 332 2 gusting 8 10.6
2019-Sep-21 15:01 294 0 gusting 4 10.6
2019-Sep-21 14:46 288 2 gusting 6 10.6
2019-Sep-21 14:30 299 1 gusting 6 10.6
2019-Sep-21 14:16 232 0 gusting 3 10.6
2019-Sep-21 14:00 329 10.6
2019-Sep-21 13:46 291 2 gusting 8 10.6
2019-Sep-21 13:31 338 0 gusting 6 10.6
2019-Sep-21 13:16 309 1 gusting 9 10.6
2019-Sep-21 13:01 324 0 gusting 6 10.6
2019-Sep-21 12:46 304 10.6
2019-Sep-21 12:30 319 0 gusting 3 11.1
2019-Sep-21 12:17 278 2 gusting 5 11.1
2019-Sep-21 12:00 267 2 gusting 6 11.1
2019-Sep-21 11:45 026 0 gusting 6 11.1
2019-Sep-21 11:31 336 2 gusting 5 11.1
2019-Sep-21 11:15 316 5 gusting 11 11.1
2019-Sep-21 11:00 324 1 gusting 7 11.1
2019-Sep-21 10:45 315 1 gusting 5 10.6
2019-Sep-21 10:30 329 1 gusting 8 10.6
2019-Sep-21 10:15 311 2 gusting 9 11.1
2019-Sep-21 10:01 296 2 gusting 7 11.1
2019-Sep-21 09:45 306 3 gusting 7 11.1
2019-Sep-21 09:30 287 2 gusting 8 10.6
2019-Sep-21 09:15 296 0 gusting 4 11.1
2019-Sep-21 09:00 327 0 gusting 4 11.1
2019-Sep-21 08:45 309 1 gusting 3 11.1
2019-Sep-21 08:30 279 0 gusting 5 10.6
2019-Sep-21 08:15 321 1 gusting 4 10.6
2019-Sep-21 08:00 334 0 gusting 3 10.0
2019-Sep-21 07:45 302 0 gusting 4 10.0
2019-Sep-21 07:30 306 0 gusting 2 10.0
2019-Sep-21 07:15 323 10.0
2019-Sep-21 07:00 258 0 gusting 3 10.0
2019-Sep-21 06:47 198 9.4
2019-Sep-21 06:33 181 9.4
2019-Sep-21 06:17 173 8.9
2019-Sep-21 06:02 173 8.9
2019-Sep-21 05:46 173 8.9
2019-Sep-21 05:31 173 8.3
2019-Sep-21 05:16 173 8.3
2019-Sep-21 05:02 173 8.3
2019-Sep-21 04:46 173 7.8
2019-Sep-21 04:31 173 7.8
2019-Sep-21 04:16 173 7.8
2019-Sep-21 04:01 173 7.8
2019-Sep-21 03:46 173 7.8
2019-Sep-21 03:30 173 7.8
2019-Sep-21 03:16 173 7.8
2019-Sep-21 03:01 173 7.2
2019-Sep-21 02:47 173 7.2
2019-Sep-21 02:31 173 7.2
2019-Sep-21 02:15 173 7.2
2019-Sep-21 02:00 173 7.2
2019-Sep-21 01:46 173 7.2
2019-Sep-21 01:30 173 7.2
2019-Sep-21 01:15 173 7.2
2019-Sep-21 01:00 173 6.7
2019-Sep-21 00:45 173 6.7
2019-Sep-21 00:30 173 6.7
2019-Sep-21 00:15 173 6.7
2019-Sep-21 00:00 173 0 gusting 1 6.7
2019-Sep-20 23:45 173 6.7
2019-Sep-20 23:31 166 1 gusting 2 6.7
2019-Sep-20 23:15 172 6.1
2019-Sep-20 23:00 141 1 gusting 4 6.1
2019-Sep-20 22:45 114 0 gusting 3 6.1
2019-Sep-20 22:30 163 0 gusting 3 6.1
2019-Sep-20 22:17 143 0 gusting 3 6.1
2019-Sep-20 22:01 151 0 gusting 3 6.1
2019-Sep-20 21:47 161 0 gusting 2 6.1
2019-Sep-20 21:31 163 6.1
2019-Sep-20 21:16 177 6.1
2019-Sep-20 21:01 167 6.1
2019-Sep-20 20:46 171 6.1
2019-Sep-20 20:31 200 6.1
2019-Sep-20 20:16 200 6.1
2019-Sep-20 20:01 200 6.1
2019-Sep-20 19:45 200 6.1
2019-Sep-20 19:31 192 6.1
2019-Sep-20 19:16 192 6.1
2019-Sep-20 19:00 192 6.1
2019-Sep-20 18:46 192 6.1
2019-Sep-20 18:30 253 6.1
2019-Sep-20 18:15 253 6.1
2019-Sep-20 18:01 253 6.1
2019-Sep-20 17:45 263 6.7
2019-Sep-20 17:30 265 6.7
2019-Sep-20 17:15 306 6.7
2019-Sep-20 17:01 306 6.7
2019-Sep-20 16:45 306 6.7
2019-Sep-20 16:30 306 7.2
2019-Sep-20 16:15 306 7.2
2019-Sep-20 16:00 306 7.2
2019-Sep-20 15:45 267 0 gusting 1 7.8
2019-Sep-20 15:30 294 8.3
2019-Sep-20 15:15 284 1 gusting 6 8.9
2019-Sep-20 15:00 294 8.9
2019-Sep-20 14:45 311 0 gusting 5 9.4
2019-Sep-20 14:30 313 0 gusting 3 9.4
2019-Sep-20 14:15 299 9.4
2019-Sep-20 14:00 307 9.4
2019-Sep-20 13:45 346 0 gusting 6 8.9
2019-Sep-20 13:30 300 0 gusting 5 9.4
2019-Sep-20 13:15 286 0 gusting 7 10.6
2019-Sep-20 12:31 294 0 gusting 7 11.1
2019-Sep-20 12:17 317 0 gusting 5 10.6
2019-Sep-20 12:01 332 0 gusting 2 10.0
2019-Sep-20 11:46 294 10.0
2019-Sep-20 11:31 326 10.6
2019-Sep-20 11:16 346 0 gusting 4 10.6
2019-Sep-20 11:01 302 10.0
2019-Sep-20 10:46 338 1 gusting 6 10.0
2019-Sep-20 10:30 273 0 gusting 3 10.6
2019-Sep-20 10:16 331 10.0
2019-Sep-20 10:01 332 0 gusting 3 10.0
2019-Sep-20 09:46 327 1 gusting 3 9.4
2019-Sep-20 09:30 292 0 gusting 3 9.4
2019-Sep-20 09:15 247 0 gusting 3 8.9
2019-Sep-20 09:00 252 0 gusting 2 8.9
2019-Sep-20 08:45 327 8.3
2019-Sep-20 08:30 331 7.8
2019-Sep-20 08:15 222 7.2
2019-Sep-20 08:00 222 7.2
2019-Sep-20 07:46 235 7.2
2019-Sep-20 07:31 235 6.7
2019-Sep-20 07:16 208 5.6
2019-Sep-20 07:01 213 0 gusting 3 4.4
2019-Sep-20 06:45 246 3.9
2019-Sep-20 06:31 253 3.3
2019-Sep-20 06:16 254 2.8
2019-Sep-20 06:00 268 2.8
2019-Sep-20 05:45 311 1.7
2019-Sep-20 05:30 311 1.1
2019-Sep-20 05:15 311 0.6
2019-Sep-20 05:00 311 -0.6
2019-Sep-20 04:45 311 -1.1
2019-Sep-20 04:15 311 -1.7
2019-Sep-20 04:00 311 -1.7
2019-Sep-20 03:45 311 -1.1
2019-Sep-20 03:30 311 -1.1
2019-Sep-20 03:15 311 -1.1
2019-Sep-20 03:00 311 -1.1
2019-Sep-20 02:45 311 -1.1
2019-Sep-20 02:30 311 -0.6
2019-Sep-20 02:15 311 -0.6
2019-Sep-20 02:00 311 -0.6
2019-Sep-20 01:45 311 -1.1
2019-Sep-20 01:30 311 -1.1
2019-Sep-20 01:17 311 -1.1
2019-Sep-20 01:01 311 -1.1
2019-Sep-20 01:00 311 -1.1
2019-Sep-20 00:46 311 -1.1
2019-Sep-20 00:32 311 -1.1
2019-Sep-20 00:16 311 -1.7
2019-Sep-20 00:01 311 -1.7
2019-Sep-19 23:47 311 -1.7
2019-Sep-19 23:31 311 -1.7
2019-Sep-19 23:16 311 -1.7
2019-Sep-19 23:01 311 -1.7
2019-Sep-19 22:46 311 -1.7
2019-Sep-19 22:31 311 -1.1
2019-Sep-19 22:16 311 -1.1
2019-Sep-19 22:02 311 -0.6
2019-Sep-19 21:46 311 -0.0
2019-Sep-19 21:31 311 -0.0
2019-Sep-19 21:16 311 0.6
2019-Sep-19 21:01 311 0.6
2019-Sep-19 20:46 311 1.1
2019-Sep-19 20:31 311 1.1
2019-Sep-19 20:15 311 1.7
2019-Sep-19 20:00 311 2.2
2019-Sep-19 19:45 311 2.2
2019-Sep-19 19:30 316 2.2
2019-Sep-19 19:15 311 2.8
2019-Sep-19 19:00 317 0 gusting 1 2.8
2019-Sep-19 18:45 321 2.8
2019-Sep-19 18:30 321 3.3
2019-Sep-19 18:15 327 3.9
2019-Sep-19 18:00 316 4.4
2019-Sep-19 17:45 350 5.0
2019-Sep-19 17:30 302 0 gusting 6 5.0
2019-Sep-19 17:15 030 5.6
2019-Sep-19 17:00 312 6.1